createdAt,value
2019-02-07T00:05:59.529Z,42
2019-02-07T00:16:02.986Z,41
2019-02-07T00:26:06.460Z,41
2019-02-07T00:36:09.933Z,41
2019-02-07T00:46:13.390Z,41
2019-02-07T00:56:16.864Z,41
2019-02-07T01:06:21.330Z,41
2019-02-07T01:16:24.789Z,41
2019-02-07T01:26:28.222Z,41
2019-02-07T01:36:32.247Z,40
2019-02-07T01:46:36.289Z,40
2019-02-07T01:56:39.733Z,40
2019-02-07T02:06:43.187Z,41
2019-02-07T02:16:46.999Z,41
2019-02-07T02:26:50.930Z,41
2019-02-07T02:36:54.366Z,41
2019-02-07T02:46:57.840Z,41
2019-02-07T02:57:01.940Z,41
2019-02-07T03:07:06.042Z,40
2019-02-07T03:17:09.512Z,41
2019-02-07T03:27:13.215Z,41
2019-02-07T03:37:16.684Z,41
2019-02-07T03:47:20.165Z,40
2019-02-07T03:57:23.639Z,41
2019-02-07T04:07:27.070Z,41
2019-02-07T04:17:30.533Z,41
2019-02-07T04:27:34.013Z,41
2019-02-07T04:37:37.464Z,41
2019-02-07T04:47:40.926Z,41
2019-02-07T04:57:44.357Z,40
2019-02-07T05:07:48.456Z,42
2019-02-07T05:17:52.467Z,41
2019-02-07T05:27:55.945Z,42
2019-02-07T05:37:59.376Z,41
2019-02-07T05:48:03.486Z,41
2019-02-07T05:58:07.659Z,42
2019-02-07T06:08:11.153Z,42
2019-02-07T06:18:14.590Z,41
2019-02-07T06:28:18.411Z,42
2019-02-07T06:38:22.305Z,42
2019-02-07T06:48:25.750Z,42
2019-02-07T06:58:29.176Z,42
2019-02-07T07:08:32.625Z,41
2019-02-07T07:18:36.091Z,42
2019-02-07T07:28:39.549Z,41
2019-02-07T07:38:43.006Z,42
2019-02-07T07:48:46.486Z,42
2019-02-07T07:58:50.406Z,42
2019-02-07T08:08:54.205Z,42
2019-02-07T08:18:57.645Z,42
2019-02-07T08:29:01.101Z,42
2019-02-07T08:39:04.668Z,42
2019-02-07T08:49:08.116Z,43
2019-02-07T08:59:11.563Z,42
2019-02-07T09:09:15.018Z,42
2019-02-07T09:19:18.470Z,41
2019-02-07T09:29:21.909Z,42
2019-02-07T09:39:25.376Z,42
2019-02-07T09:49:28.852Z,43
2019-02-07T09:59:32.323Z,43
2019-02-07T10:09:36.404Z,44
2019-02-07T10:19:40.407Z,43
2019-02-07T10:29:43.850Z,44
2019-02-07T10:39:47.296Z,43
2019-02-07T10:49:59.819Z,43
2019-02-07T11:00:03.294Z,43
2019-02-07T11:10:06.746Z,43
2019-02-07T11:20:10.183Z,43
2019-02-07T11:30:13.591Z,42
2019-02-07T11:40:17.324Z,43
2019-02-07T11:50:21.146Z,43
2019-02-07T12:00:24.574Z,43
2019-02-07T12:10:27.980Z,43
2019-02-07T12:20:31.429Z,43
2019-02-07T12:30:34.913Z,42
2019-02-07T12:40:38.366Z,42
2019-02-07T12:50:41.817Z,44
2019-02-07T13:00:45.269Z,43
2019-02-07T13:10:49.295Z,43
2019-02-07T13:20:53.406Z,43
2019-02-07T13:30:56.888Z,43
2019-02-07T13:41:00.326Z,43
2019-02-07T13:51:03.794Z,44
2019-02-07T14:01:07.262Z,44
2019-02-07T14:11:10.832Z,43
2019-02-07T14:21:14.315Z,43
2019-02-07T14:31:17.739Z,43
2019-02-07T14:41:21.615Z,44
2019-02-07T14:51:25.634Z,45
2019-02-07T15:01:29.079Z,44
2019-02-07T15:11:32.501Z,44
2019-02-07T15:21:35.963Z,45
2019-02-07T15:31:39.816Z,44
2019-02-07T15:41:43.243Z,45
2019-02-07T15:51:46.712Z,45
2019-02-07T16:01:50.118Z,44
2019-02-07T16:11:53.574Z,44
2019-02-07T16:21:57.031Z,44
2019-02-07T16:32:00.539Z,44
2019-02-07T16:42:08.673Z,44
2019-02-07T16:52:12.155Z,45
2019-02-07T17:02:15.591Z,45
2019-02-07T17:12:19.034Z,46
2019-02-07T17:22:22.496Z,46
2019-02-07T17:32:25.975Z,44
2019-02-07T17:42:29.390Z,47
2019-02-07T17:52:32.920Z,46
2019-02-07T18:02:36.819Z,46
2019-02-07T18:12:40.690Z,45
2019-02-07T18:22:44.126Z,48
2019-02-07T18:32:47.559Z,44
2019-02-07T18:42:51.693Z,44
2019-02-07T18:52:55.677Z,44
2019-02-07T19:02:59.143Z,44
2019-02-07T19:13:02.589Z,43
2019-02-07T19:23:06.075Z,43
2019-02-07T19:33:09.607Z,42
2019-02-07T19:43:13.061Z,43
2019-02-07T19:53:16.507Z,42
2019-02-07T20:03:20.003Z,42
2019-02-07T20:13:23.429Z,42
2019-02-07T20:23:26.871Z,42
2019-02-07T20:33:30.356Z,42
2019-02-07T20:43:34.842Z,42
2019-02-07T20:53:38.314Z,42
2019-02-07T21:03:42.506Z,41
2019-02-07T21:13:46.583Z,41
2019-02-07T21:23:50.064Z,41
2019-02-07T21:33:53.530Z,40
2019-02-07T21:43:57.010Z,39
2019-02-07T21:54:00.483Z,40
2019-02-07T22:04:03.960Z,39
2019-02-07T22:14:08.056Z,40
2019-02-07T22:24:12.045Z,40
2019-02-07T22:34:15.501Z,40
2019-02-07T22:44:18.957Z,40
2019-02-07T22:54:22.370Z,40
2019-02-07T23:04:25.862Z,40
2019-02-07T23:14:29.405Z,40
2019-02-07T23:24:32.874Z,40
2019-02-07T23:34:36.328Z,41
2019-02-07T23:44:39.781Z,41
2019-02-07T23:54:43.242Z,40
